createdAt,value
2019-03-26T00:02:29.604Z,94650.86
2019-03-26T00:04:59.707Z,94645.14
2019-03-26T00:07:29.940Z,94642.82
2019-03-26T00:10:00.419Z,94646.05
2019-03-26T00:12:30.472Z,94647.66
2019-03-26T00:15:00.552Z,94657.09
2019-03-26T00:17:30.613Z,94668.31
2019-03-26T00:20:00.744Z,94662.80
2019-03-26T00:22:30.780Z,94661.22
2019-03-26T00:25:00.756Z,94670.04
2019-03-26T00:27:30.723Z,94675.11
2019-03-26T00:30:00.705Z,94679.89
2019-03-26T00:32:30.899Z,94685.97
2019-03-26T00:35:01.183Z,94692.22
2019-03-26T00:37:31.229Z,94693.69
2019-03-26T00:40:01.309Z,94699.64
2019-03-26T00:42:31.314Z,94697.54
2019-03-26T00:45:01.343Z,94703.19
2019-03-26T00:47:31.716Z,94706.24
2019-03-26T00:50:01.775Z,94712.86
2019-03-26T00:52:31.802Z,94713.00
2019-03-26T00:55:02.228Z,94716.28
2019-03-26T00:57:32.262Z,94717.83
2019-03-26T01:00:02.383Z,94717.39
2019-03-26T01:02:33.304Z,94725.92
2019-03-26T01:05:03.397Z,94726.16
2019-03-26T01:07:33.521Z,94725.81
2019-03-26T01:10:04.007Z,94729.84
2019-03-26T01:12:34.003Z,94723.55
2019-03-26T01:15:04.036Z,94724.69
2019-03-26T01:17:34.376Z,94732.77
2019-03-26T01:20:04.582Z,94729.75
2019-03-26T01:22:34.859Z,94738.60
2019-03-26T01:25:05.069Z,94736.13
2019-03-26T01:27:36.238Z,94729.59
2019-03-26T01:30:06.769Z,94736.33
2019-03-26T01:32:36.877Z,94739.25
2019-03-26T01:35:07.031Z,94737.12
2019-03-26T01:37:37.181Z,94739.58
2019-03-26T01:40:07.251Z,94741.39
2019-03-26T01:42:37.314Z,94733.54
2019-03-26T01:45:08.984Z,94737.70
2019-03-26T01:47:39.028Z,94742.73
2019-03-26T01:50:09.506Z,94746.54
2019-03-26T01:52:39.512Z,94750.70
2019-03-26T01:55:09.535Z,94762.24
2019-03-26T01:57:39.598Z,94734.23
2019-03-26T02:00:11.003Z,94760.89
2019-03-26T02:02:41.384Z,94769.86
2019-03-26T02:05:11.418Z,94769.19
2019-03-26T02:07:41.409Z,94773.57
2019-03-26T02:10:11.474Z,94769.20
2019-03-26T02:12:41.508Z,94779.75
2019-03-26T02:15:15.669Z,94771.00
2019-03-26T02:17:45.886Z,94777.52
2019-03-26T02:20:15.977Z,94773.60
2019-03-26T02:22:46.366Z,94778.89
2019-03-26T02:25:16.408Z,94786.73
2019-03-26T02:27:46.395Z,94786.61
2019-03-26T02:30:17.419Z,94785.92
2019-03-26T02:32:47.427Z,94796.78
2019-03-26T02:35:18.969Z,94786.48
2019-03-26T02:37:49.072Z,94806.97
2019-03-26T02:40:19.605Z,94803.48
2019-03-26T02:42:49.638Z,94801.70
2019-03-26T02:45:19.723Z,94802.48
2019-03-26T02:47:49.675Z,94801.91
2019-03-26T02:50:19.607Z,94809.28
2019-03-26T02:52:49.622Z,94811.97
2019-03-26T02:55:19.578Z,94818.20
2019-03-26T02:57:49.539Z,94815.97
2019-03-26T03:00:19.526Z,94832.30
2019-03-26T03:02:49.670Z,94832.30
2019-03-26T03:05:34.470Z,94839.70
2019-03-26T03:07:51.802Z,94841.02
2019-03-26T03:10:21.814Z,94852.45
2019-03-26T03:12:51.804Z,94851.77
2019-03-26T03:15:21.845Z,94853.09
2019-03-26T03:17:51.934Z,94861.47
2019-03-26T03:20:22.121Z,94866.97
2019-03-26T03:22:52.670Z,94878.91
2019-03-26T03:25:22.640Z,94882.23
2019-03-26T03:27:52.875Z,94880.20
2019-03-26T03:30:23.753Z,94896.41
2019-03-26T03:32:53.681Z,94893.27
2019-03-26T03:35:23.645Z,94889.67
2019-03-26T03:37:53.633Z,94889.67
2019-03-26T03:40:23.583Z,94900.17
2019-03-26T03:42:54.001Z,94786.92
2019-03-26T03:45:33.873Z,94910.47
2019-03-26T03:48:04.066Z,94917.31
2019-03-26T03:50:34.763Z,94917.31
2019-03-26T03:53:05.644Z,94914.38
2019-03-26T03:55:36.559Z,94906.75
2019-03-26T03:58:06.880Z,94929.94
2019-03-26T04:00:41.953Z,94934.39
2019-03-26T04:03:12.078Z,94936.70
2019-03-26T04:05:42.121Z,94943.42
2019-03-26T04:08:12.105Z,94940.77
2019-03-26T04:10:42.257Z,94942.84
2019-03-26T04:13:12.201Z,94953.13
2019-03-26T04:15:42.106Z,94957.78
2019-03-26T04:18:12.059Z,94966.25
2019-03-26T04:20:42.071Z,94979.05
2019-03-26T04:23:12.514Z,94980.61
2019-03-26T04:25:42.549Z,94972.88
2019-03-26T04:28:13.562Z,94983.41
2019-03-26T04:30:43.602Z,94993.14
2019-03-26T04:33:13.806Z,95001.33
2019-03-26T04:35:43.868Z,95001.50
2019-03-26T04:38:14.184Z,95004.02
2019-03-26T04:40:44.102Z,94994.23
2019-03-26T04:43:14.058Z,95007.45
2019-03-26T04:45:44.039Z,95011.10
2019-03-26T04:48:14.835Z,95017.02
2019-03-26T04:50:45.653Z,95023.17
2019-03-26T04:53:15.622Z,95023.81
2019-03-26T04:55:46.510Z,95028.59
2019-03-26T04:58:16.513Z,95036.89
2019-03-26T05:00:46.429Z,95036.17
2019-03-26T05:03:16.372Z,95043.46
2019-03-26T05:05:46.311Z,95042.34
2019-03-26T05:08:16.557Z,95052.39
2019-03-26T05:10:49.119Z,95056.25
2019-03-26T05:13:18.181Z,95006.91
2019-03-26T05:15:48.290Z,95068.24
2019-03-26T05:18:19.155Z,95063.91
2019-03-26T05:20:49.498Z,95068.73
2019-03-26T05:23:19.429Z,95081.20
2019-03-26T05:25:49.392Z,95070.67
2019-03-26T05:28:19.320Z,95077.39
2019-03-26T05:30:49.275Z,95079.85
2019-03-26T05:33:19.256Z,95080.78
2019-03-26T05:35:51.610Z,95083.47
2019-03-26T05:38:21.082Z,95083.56
2019-03-26T05:40:53.582Z,95088.98
2019-03-26T05:43:23.572Z,95076.98
2019-03-26T05:45:53.525Z,95088.05
2019-03-26T05:48:23.468Z,95088.05
2019-03-26T05:50:53.418Z,95073.97
2019-03-26T05:53:23.344Z,95087.37
2019-03-26T05:55:54.258Z,95088.96
2019-03-26T05:58:24.323Z,95082.00
2019-03-26T06:00:54.286Z,95090.77
2019-03-26T06:03:24.762Z,95089.59
2019-03-26T06:05:54.803Z,95087.91
2019-03-26T06:08:25.257Z,95093.91
2019-03-26T06:10:55.292Z,95089.25
2019-03-26T06:13:25.394Z,95097.65
2019-03-26T06:15:55.342Z,95094.17
2019-03-26T06:18:26.198Z,95090.00
2019-03-26T06:20:57.516Z,95096.73
2019-03-26T06:23:28.375Z,95101.35
2019-03-26T06:25:59.345Z,95108.95
2019-03-26T06:28:29.303Z,95115.70
2019-03-26T06:30:59.271Z,95117.50
2019-03-26T06:33:29.808Z,95104.09
2019-03-26T06:35:59.776Z,95047.78
2019-03-26T06:38:29.798Z,95110.24
2019-03-26T06:40:59.772Z,95112.51
2019-03-26T06:43:29.760Z,95113.86
2019-03-26T06:46:00.039Z,95114.71
2019-03-26T06:48:30.332Z,95117.81
2019-03-26T06:51:00.348Z,95111.30
2019-03-26T06:53:30.380Z,95124.28
2019-03-26T06:56:00.365Z,94973.94
2019-03-26T06:58:30.617Z,95125.86
2019-03-26T07:01:00.753Z,95129.48
2019-03-26T07:03:30.796Z,95121.23
2019-03-26T07:06:00.915Z,95121.58
2019-03-26T07:08:30.868Z,95125.66
2019-03-26T07:11:00.884Z,94967.11
2019-03-26T07:13:30.871Z,95117.77
2019-03-26T07:16:00.969Z,95122.48
2019-03-26T07:18:31.130Z,95125.20
2019-03-26T07:21:01.136Z,95120.86
2019-03-26T07:23:31.132Z,95128.30
2019-03-26T07:26:01.092Z,95126.59
2019-03-26T07:28:31.281Z,95134.47
2019-03-26T07:31:01.403Z,95142.50
2019-03-26T07:33:31.388Z,95143.15
2019-03-26T07:36:01.594Z,95142.05
2019-03-26T07:38:31.571Z,95146.84
2019-03-26T07:41:01.593Z,95144.65
2019-03-26T07:43:31.655Z,95150.02
2019-03-26T07:46:01.836Z,95137.34
2019-03-26T07:48:31.776Z,95139.38
2019-03-26T07:51:02.577Z,95143.55
2019-03-26T07:53:33.458Z,95147.20
2019-03-26T07:56:03.395Z,95151.68
2019-03-26T07:58:33.499Z,95150.28
2019-03-26T08:01:05.149Z,95142.76
2019-03-26T08:03:35.126Z,95148.09
2019-03-26T08:06:05.233Z,95149.98
2019-03-26T08:08:35.280Z,95153.19
2019-03-26T08:11:05.223Z,95154.43
2019-03-26T08:13:35.240Z,95159.91
2019-03-26T08:16:05.186Z,95148.57
2019-03-26T08:18:35.261Z,95154.75
2019-03-26T08:21:05.329Z,95147.86
2019-03-26T08:23:38.252Z,95150.15
2019-03-26T08:26:07.057Z,95147.27
2019-03-26T08:28:37.055Z,95159.18
2019-03-26T08:31:07.073Z,95158.52
2019-03-26T08:33:37.406Z,95150.73
2019-03-26T08:36:07.814Z,95158.39
2019-03-26T08:38:37.733Z,95164.47
2019-03-26T08:41:13.713Z,95156.25
2019-03-26T08:43:43.749Z,95163.89
2019-03-26T08:46:13.653Z,95157.95
2019-03-26T08:48:43.607Z,95165.70
2019-03-26T08:51:13.623Z,95166.03
2019-03-26T08:53:43.620Z,95162.56
2019-03-26T08:56:13.589Z,95155.02
2019-03-26T08:58:43.589Z,95164.58
2019-03-26T09:01:13.570Z,95152.41
2019-03-26T09:03:43.614Z,95160.72
2019-03-26T09:06:13.507Z,95167.59
2019-03-26T09:08:43.488Z,95166.42
2019-03-26T09:11:13.494Z,95164.05
2019-03-26T09:13:43.415Z,95168.27
2019-03-26T09:16:14.288Z,95171.91
2019-03-26T09:18:44.270Z,95167.39
2019-03-26T09:21:14.451Z,95166.23
2019-03-26T09:23:44.678Z,95155.70
2019-03-26T09:26:14.802Z,95157.20
2019-03-26T09:28:47.753Z,95166.50
2019-03-26T09:31:16.407Z,95161.64
2019-03-26T09:33:46.510Z,95167.06
2019-03-26T09:36:16.600Z,95163.12
2019-03-26T09:38:46.582Z,95168.95
2019-03-26T09:41:16.760Z,95167.81
2019-03-26T09:43:46.712Z,95173.12
2019-03-26T09:46:16.748Z,95167.80
2019-03-26T09:48:46.839Z,95176.94
2019-03-26T09:51:17.857Z,95179.74
2019-03-26T09:53:48.090Z,95171.64
2019-03-26T09:56:28.112Z,95179.88
2019-03-26T09:58:49.743Z,95170.66
2019-03-26T10:01:19.724Z,95182.35
2019-03-26T10:03:49.635Z,95168.50
2019-03-26T10:06:23.570Z,95184.93
2019-03-26T10:08:52.762Z,95183.91
2019-03-26T10:11:23.007Z,95186.14
2019-03-26T10:13:53.041Z,95184.92
2019-03-26T10:16:23.062Z,95098.75
2019-03-26T10:18:53.034Z,95188.62
2019-03-26T10:21:22.980Z,95193.67
2019-03-26T10:23:53.163Z,95186.16
2019-03-26T10:26:23.585Z,95184.81
2019-03-26T10:28:53.542Z,95093.27
2019-03-26T10:31:23.517Z,95190.56
2019-03-26T10:33:53.712Z,95188.41
2019-03-26T10:36:23.819Z,95179.76
2019-03-26T10:39:05.598Z,95184.59
2019-03-26T10:41:25.492Z,95169.52
2019-03-26T10:43:55.417Z,95188.42
2019-03-26T10:46:25.357Z,95180.77
2019-03-26T10:48:55.286Z,95184.58
2019-03-26T10:51:25.216Z,95185.13
2019-03-26T10:53:55.157Z,95189.92
2019-03-26T10:56:25.153Z,95202.49
2019-03-26T10:58:55.185Z,95185.13
2019-03-26T11:01:25.138Z,95187.62
2019-03-26T11:03:55.052Z,95190.00
2019-03-26T11:06:25.299Z,95191.44
2019-03-26T11:08:55.223Z,95196.60
2019-03-26T11:11:25.177Z,95190.05
2019-03-26T11:13:55.226Z,95199.15
2019-03-26T11:16:25.241Z,95191.39
2019-03-26T11:18:55.216Z,95187.42
2019-03-26T11:21:26.155Z,95188.60
2019-03-26T11:23:56.581Z,95188.05
2019-03-26T11:26:26.619Z,95190.86
2019-03-26T11:28:57.083Z,95179.16
2019-03-26T11:31:29.978Z,95186.82
2019-03-26T11:33:58.673Z,95183.44
2019-03-26T11:36:30.353Z,95188.05
2019-03-26T11:39:00.822Z,95183.03
2019-03-26T11:41:31.375Z,95196.85
2019-03-26T11:44:04.589Z,95185.03
2019-03-26T11:46:33.636Z,95192.91
2019-03-26T11:49:03.576Z,95191.58
2019-03-26T11:51:33.507Z,95182.58
2019-03-26T11:54:03.502Z,95189.66
2019-03-26T11:56:33.460Z,95190.91
2019-03-26T11:59:03.402Z,95183.59
2019-03-26T12:01:33.351Z,95188.88
2019-03-26T12:04:03.333Z,95188.08
2019-03-26T12:06:33.294Z,95196.06
2019-03-26T12:09:05.615Z,95190.01
2019-03-26T12:11:35.796Z,95199.23
2019-03-26T12:14:05.929Z,95205.97
2019-03-26T12:16:35.896Z,95203.84
2019-03-26T12:19:05.857Z,95197.09
2019-03-26T12:21:35.848Z,95202.34
2019-03-26T12:24:06.001Z,95207.41
2019-03-26T12:26:36.095Z,95207.72
2019-03-26T12:29:06.355Z,95203.47
2019-03-26T12:31:36.290Z,95087.21
2019-03-26T12:34:06.449Z,95209.28
2019-03-26T12:36:40.164Z,95027.14
2019-03-26T12:39:08.791Z,95216.95
2019-03-26T12:41:38.968Z,95224.04
2019-03-26T12:44:08.885Z,95222.34
2019-03-26T12:46:38.938Z,95219.43
2019-03-26T12:49:09.747Z,95227.45
2019-03-26T12:51:39.734Z,95227.16
2019-03-26T12:54:10.666Z,95227.56
2019-03-26T12:56:40.583Z,95228.53
2019-03-26T12:59:10.541Z,95233.66
2019-03-26T13:01:40.507Z,95240.11
2019-03-26T13:04:12.925Z,95238.82
2019-03-26T13:06:42.133Z,95240.13
2019-03-26T13:09:12.129Z,95244.41
2019-03-26T13:11:42.979Z,95242.80
2019-03-26T13:14:12.992Z,95261.22
2019-03-26T13:16:42.986Z,95254.23
2019-03-26T13:19:12.985Z,95254.23
2019-03-26T13:21:42.987Z,95246.34
2019-03-26T13:24:13.020Z,95250.97
2019-03-26T13:26:43.280Z,95256.43
2019-03-26T13:29:13.223Z,95251.34
2019-03-26T13:31:43.143Z,95249.42
2019-03-26T13:34:13.109Z,95257.45
2019-03-26T13:36:43.063Z,95264.16
2019-03-26T13:39:14.095Z,95256.05
2019-03-26T13:41:44.446Z,95251.59
2019-03-26T13:44:14.416Z,95264.10
2019-03-26T13:46:44.389Z,95261.78
2019-03-26T13:49:14.383Z,95265.31
2019-03-26T13:51:44.323Z,95267.06
2019-03-26T13:54:14.549Z,95272.52
2019-03-26T13:56:44.594Z,95263.83
2019-03-26T13:59:14.571Z,95267.16
2019-03-26T14:01:44.521Z,95264.34
2019-03-26T14:04:14.489Z,95263.98
2019-03-26T14:06:44.459Z,95259.61
2019-03-26T14:09:14.400Z,95266.41
2019-03-26T14:11:44.351Z,95275.13
2019-03-26T14:14:14.376Z,95268.63
2019-03-26T14:16:44.357Z,95275.33
2019-03-26T14:19:14.676Z,95281.17
2019-03-26T14:21:44.997Z,95271.12
2019-03-26T14:24:15.012Z,95279.69
2019-03-26T14:26:44.933Z,95282.94
2019-03-26T14:29:14.864Z,95285.91
2019-03-26T14:31:44.820Z,95279.18
2019-03-26T14:34:14.788Z,95276.69
2019-03-26T14:36:44.730Z,95275.67
2019-03-26T14:39:14.696Z,95277.72
2019-03-26T14:41:44.672Z,95288.98
2019-03-26T14:44:14.610Z,95279.89
2019-03-26T14:46:44.607Z,95271.69
2019-03-26T14:49:14.619Z,95271.09
2019-03-26T14:51:44.547Z,95272.47
2019-03-26T14:54:14.636Z,95288.23
2019-03-26T14:56:44.890Z,95276.32
2019-03-26T14:59:14.905Z,95282.30
2019-03-26T15:01:44.867Z,95280.16
2019-03-26T15:04:14.878Z,95280.34
2019-03-26T15:06:44.858Z,95281.44
2019-03-26T15:09:14.837Z,95286.73
2019-03-26T15:11:44.971Z,95290.23
2019-03-26T15:14:14.916Z,95284.14
2019-03-26T15:16:45.008Z,95282.12
2019-03-26T15:19:14.951Z,95288.16
2019-03-26T15:21:44.980Z,95298.01
2019-03-26T15:24:14.945Z,95304.04
2019-03-26T15:26:44.922Z,95305.56
2019-03-26T15:29:15.037Z,95306.45
2019-03-26T15:31:45.063Z,95308.91
2019-03-26T15:34:15.051Z,95306.97
2019-03-26T15:36:44.997Z,95312.48
2019-03-26T15:39:14.960Z,95319.09
2019-03-26T15:41:45.011Z,95315.23
2019-03-26T15:44:14.985Z,95318.05
2019-03-26T15:46:44.993Z,95326.55
2019-03-26T15:49:15.002Z,95316.69
2019-03-26T15:51:44.957Z,95319.64
2019-03-26T15:54:14.929Z,95321.32
2019-03-26T15:56:44.880Z,95311.48
2019-03-26T15:59:14.858Z,95324.00
2019-03-26T16:01:44.880Z,95317.94
2019-03-26T16:04:14.900Z,95325.98
2019-03-26T16:06:44.848Z,95328.84
2019-03-26T16:09:14.956Z,95328.47
2019-03-26T16:11:44.968Z,95332.42
2019-03-26T16:14:14.908Z,95324.30
2019-03-26T16:16:44.922Z,95333.00
2019-03-26T16:19:17.861Z,95337.95
2019-03-26T16:21:47.423Z,95330.43
2019-03-26T16:24:17.924Z,95341.29
2019-03-26T16:26:48.545Z,95338.59
2019-03-26T16:29:18.511Z,95210.30
2019-03-26T16:31:48.480Z,95336.98
2019-03-26T16:34:18.496Z,95346.11
2019-03-26T16:36:58.899Z,95350.83
2019-03-26T16:39:20.279Z,95348.91
2019-03-26T16:41:50.390Z,95345.41
2019-03-26T16:44:20.750Z,95355.05
2019-03-26T16:46:50.939Z,95355.05
2019-03-26T16:49:21.037Z,95354.29
2019-03-26T16:51:51.526Z,95353.67
2019-03-26T16:54:21.558Z,95359.36
2019-03-26T16:56:52.451Z,95367.52
2019-03-26T16:59:22.552Z,95369.14
2019-03-26T17:01:52.564Z,95369.47
2019-03-26T17:04:22.848Z,95372.61
2019-03-26T17:06:52.844Z,95377.75
2019-03-26T17:09:22.834Z,95374.33
2019-03-26T17:12:03.009Z,95380.09
2019-03-26T17:14:24.771Z,95379.38
2019-03-26T17:16:54.763Z,95385.98
2019-03-26T17:19:24.753Z,95384.27
2019-03-26T17:21:54.676Z,95384.35
2019-03-26T17:24:24.992Z,95394.79
2019-03-26T17:26:55.017Z,95395.20
2019-03-26T17:29:25.073Z,95400.59
2019-03-26T17:31:55.075Z,95394.88
2019-03-26T17:34:25.186Z,95410.73
2019-03-26T17:36:55.188Z,95414.77
2019-03-26T17:39:25.181Z,95412.54
2019-03-26T17:41:55.150Z,95419.48
2019-03-26T17:44:25.268Z,95417.59
2019-03-26T17:46:55.346Z,95423.52
2019-03-26T17:49:25.327Z,95427.64
2019-03-26T17:51:55.258Z,95432.15
2019-03-26T17:54:25.162Z,95435.17
2019-03-26T17:56:55.045Z,95439.77
2019-03-26T17:59:25.018Z,95445.23
2019-03-26T18:01:54.956Z,95441.41
2019-03-26T18:04:25.134Z,95443.17
2019-03-26T18:06:55.364Z,95129.09
2019-03-26T18:09:25.347Z,95456.80
2019-03-26T18:11:55.760Z,95457.91
2019-03-26T18:14:25.800Z,95467.74
2019-03-26T18:16:55.861Z,95473.81
2019-03-26T18:19:25.836Z,95471.32
2019-03-26T18:21:58.969Z,95475.98
2019-03-26T18:24:29.004Z,95475.98
2019-03-26T18:26:58.945Z,95480.66
2019-03-26T18:29:29.405Z,95481.87
2019-03-26T18:31:59.310Z,95456.09
2019-03-26T18:34:29.539Z,95496.45
2019-03-26T18:36:59.436Z,95496.83
2019-03-26T18:39:29.345Z,95505.78
2019-03-26T18:41:59.296Z,95497.23
2019-03-26T18:44:29.350Z,95497.87
2019-03-26T18:46:59.304Z,95503.91
2019-03-26T18:49:29.238Z,95501.22
2019-03-26T18:51:59.235Z,95502.55
2019-03-26T18:54:29.227Z,95500.19
2019-03-26T18:56:59.142Z,94756.13
2019-03-26T18:59:29.202Z,95512.92
2019-03-26T19:01:59.200Z,95501.69
2019-03-26T19:04:29.142Z,95507.86
2019-03-26T19:06:59.075Z,95503.03
2019-03-26T19:09:29.030Z,95504.78
2019-03-26T19:11:58.969Z,95508.16
2019-03-26T19:14:28.906Z,95513.08
2019-03-26T19:16:58.839Z,95513.14
2019-03-26T19:19:28.759Z,95509.66
2019-03-26T19:21:58.830Z,95520.43
2019-03-26T19:24:28.834Z,95513.84
2019-03-26T19:26:58.813Z,95517.95
2019-03-26T19:29:29.036Z,95525.98
2019-03-26T19:31:58.974Z,95526.91
2019-03-26T19:34:30.013Z,95522.56
2019-03-26T19:36:59.929Z,95528.03
2019-03-26T19:39:29.861Z,95532.16
2019-03-26T19:41:59.783Z,95541.02
2019-03-26T19:44:29.748Z,95540.77
2019-03-26T19:46:59.641Z,95533.27
2019-03-26T19:49:30.020Z,95546.73
2019-03-26T19:51:59.984Z,95537.54
2019-03-26T19:54:30.138Z,95547.25
2019-03-26T19:57:00.227Z,95543.30
2019-03-26T19:59:30.474Z,95547.25
2019-03-26T20:02:00.418Z,95541.30
2019-03-26T20:04:30.382Z,95552.33
2019-03-26T20:07:00.325Z,95547.50
2019-03-26T20:09:30.648Z,95554.88
2019-03-26T20:12:00.752Z,95554.47
2019-03-26T20:14:31.119Z,95560.55
2019-03-26T20:17:01.327Z,95554.67
2019-03-26T20:19:31.648Z,95567.03
2019-03-26T20:22:01.623Z,95562.30
2019-03-26T20:24:31.715Z,95569.12
2019-03-26T20:27:01.796Z,95567.00
2019-03-26T20:29:31.787Z,95565.84
2019-03-26T20:32:01.879Z,95569.45
2019-03-26T20:34:31.775Z,95571.48
2019-03-26T20:37:01.714Z,95564.20
2019-03-26T20:39:31.625Z,95590.72
2019-03-26T20:42:01.714Z,95585.72
2019-03-26T20:44:31.631Z,95589.48
2019-03-26T20:47:02.769Z,95585.29
2019-03-26T20:49:32.873Z,95592.28
2019-03-26T20:52:02.782Z,95591.56
2019-03-26T20:54:32.865Z,95591.56
2019-03-26T20:57:03.148Z,95595.06
2019-03-26T20:59:33.386Z,95605.42
2019-03-26T21:02:05.273Z,95598.43
2019-03-26T21:04:35.855Z,95604.08
2019-03-26T21:07:06.860Z,95608.09
2019-03-26T21:09:36.791Z,95609.80
2019-03-26T21:12:06.779Z,95614.58
2019-03-26T21:14:36.698Z,95617.53
2019-03-26T21:17:06.696Z,95617.84
2019-03-26T21:19:37.109Z,95614.68
2019-03-26T21:22:07.079Z,95623.03
2019-03-26T21:24:37.022Z,95627.59
2019-03-26T21:27:06.963Z,95631.46
2019-03-26T21:29:36.991Z,95633.76
2019-03-26T21:32:07.142Z,95631.13
2019-03-26T21:34:37.232Z,95638.55
2019-03-26T21:37:07.218Z,95641.13
2019-03-26T21:39:37.177Z,95638.98
2019-03-26T21:42:07.152Z,95649.80
2019-03-26T21:44:37.104Z,95656.55
2019-03-26T21:47:08.513Z,95649.64
2019-03-26T21:49:38.899Z,95649.28
2019-03-26T21:52:08.919Z,95661.91
2019-03-26T21:54:38.824Z,95666.70
2019-03-26T21:57:08.831Z,95663.44
2019-03-26T21:59:38.850Z,95664.03
2019-03-26T22:02:09.592Z,95681.36
2019-03-26T22:04:39.612Z,95671.04
2019-03-26T22:07:09.645Z,95254.61
2019-03-26T22:09:39.712Z,95665.55
2019-03-26T22:12:10.559Z,95678.15
2019-03-26T22:14:40.555Z,95679.18
2019-03-26T22:17:10.493Z,95687.72
2019-03-26T22:19:40.580Z,95698.66
2019-03-26T22:22:10.619Z,95690.30
2019-03-26T22:24:40.547Z,95683.37
2019-03-26T22:27:10.575Z,95690.12
2019-03-26T22:29:42.869Z,95694.47
2019-03-26T22:32:12.901Z,95686.69
2019-03-26T22:34:42.837Z,95692.05
2019-03-26T22:37:12.871Z,95696.61
2019-03-26T22:39:42.859Z,95694.73
2019-03-26T22:42:12.982Z,95703.85
2019-03-26T22:44:42.887Z,95698.75
2019-03-26T22:47:12.903Z,95692.98
2019-03-26T22:49:43.079Z,95705.01
2019-03-26T22:52:13.055Z,95703.13
2019-03-26T22:54:43.396Z,95696.42
2019-03-26T22:57:13.324Z,95704.96
2019-03-26T22:59:43.326Z,95707.92
2019-03-26T23:02:13.378Z,95703.90
2019-03-26T23:04:43.363Z,95705.64
2019-03-26T23:07:13.787Z,95700.49
2019-03-26T23:09:44.029Z,95707.24
2019-03-26T23:12:14.056Z,95702.73
2019-03-26T23:14:45.342Z,95705.05
2019-03-26T23:17:15.958Z,95703.45
2019-03-26T23:19:45.825Z,95703.90
2019-03-26T23:22:15.848Z,95704.75
2019-03-26T23:24:45.754Z,95707.83
2019-03-26T23:27:15.745Z,95706.75
2019-03-26T23:29:45.694Z,95706.75
2019-03-26T23:32:15.965Z,95704.16
2019-03-26T23:34:45.908Z,95711.14
2019-03-26T23:37:16.619Z,95711.94
2019-03-26T23:39:46.566Z,95705.50
2019-03-26T23:42:16.707Z,95708.23
2019-03-26T23:44:57.823Z,95701.44
2019-03-26T23:47:18.266Z,95711.59
2019-03-26T23:49:48.217Z,95702.87
2019-03-26T23:52:18.269Z,95702.87
2019-03-26T23:54:48.187Z,95711.63
2019-03-26T23:57:18.127Z,95708.19
2019-03-26T23:59:48.053Z,95703.05
